createdAt,value
2022-08-17T00:01:17.371Z,4.30
2022-08-17T00:04:11.638Z,5.00
2022-08-17T00:06:59.047Z,4.67
2022-08-17T00:09:45.686Z,4.10
2022-08-17T00:12:42.579Z,4.60
2022-08-17T00:15:38.393Z,4.93
2022-08-17T00:19:01.314Z,4.57
2022-08-17T00:22:00.014Z,4.67
2022-08-17T00:24:42.871Z,5.43
2022-08-17T00:27:30.091Z,5.03
2022-08-17T00:30:17.128Z,5.17
2022-08-17T00:33:16.367Z,5.07
2022-08-17T00:36:10.718Z,4.50
2022-08-17T00:38:59.071Z,5.03
2022-08-17T00:41:45.995Z,5.03
2022-08-17T00:44:33.211Z,4.60
2022-08-17T00:47:20.282Z,4.37
2022-08-17T00:50:11.041Z,4.70
2022-08-17T00:52:58.508Z,5.50
2022-08-17T00:55:47.221Z,5.50
2022-08-17T00:58:36.231Z,4.23
2022-08-17T01:01:24.005Z,5.00
2022-08-17T01:04:13.752Z,4.87
2022-08-17T01:07:04.344Z,5.60
2022-08-17T01:09:51.568Z,5.30
2022-08-17T01:12:39.742Z,5.03
2022-08-17T01:15:26.617Z,5.03
2022-08-17T01:18:14.911Z,4.73
2022-08-17T01:21:07.837Z,6.27
2022-08-17T01:23:56.937Z,5.67
2022-08-17T01:26:44.477Z,5.50
2022-08-17T01:29:32.501Z,5.03
2022-08-17T01:32:19.731Z,6.97
2022-08-17T01:35:08.213Z,5.83
2022-08-17T01:37:55.638Z,6.10
2022-08-17T01:40:50.413Z,5.83
2022-08-17T01:43:46.810Z,5.07
2022-08-17T01:46:36.689Z,5.53
2022-08-17T01:49:24.232Z,5.53
2022-08-17T01:52:12.978Z,5.67
2022-08-17T01:55:00.462Z,5.03
2022-08-17T01:57:48.789Z,5.27
2022-08-17T02:00:59.455Z,5.30
2022-08-17T02:03:59.095Z,5.70
2022-08-17T02:06:54.250Z,5.60
2022-08-17T02:09:42.178Z,5.30
2022-08-17T02:12:37.829Z,5.60
2022-08-17T02:15:27.360Z,5.73
2022-08-17T02:18:14.411Z,6.50
2022-08-17T02:21:01.639Z,6.00
2022-08-17T02:23:51.002Z,5.73
2022-08-17T02:26:38.045Z,5.80
2022-08-17T02:29:25.001Z,5.40
2022-08-17T02:32:21.531Z,5.87
2022-08-17T02:35:15.563Z,5.47
2022-08-17T02:38:07.473Z,5.37
2022-08-17T02:40:54.528Z,5.90
2022-08-17T02:43:41.764Z,5.70
2022-08-17T02:46:28.587Z,6.07
2022-08-17T02:49:16.815Z,5.37
2022-08-17T02:52:05.040Z,5.77
2022-08-17T02:54:51.901Z,5.40
2022-08-17T02:57:39.160Z,5.70
2022-08-17T03:00:29.188Z,5.97
2022-08-17T03:03:19.440Z,5.87
2022-08-17T03:06:08.850Z,5.97
2022-08-17T03:08:56.268Z,5.70
2022-08-17T03:11:43.408Z,5.40
2022-08-17T03:14:32.188Z,5.70
2022-08-17T03:17:19.137Z,5.23
2022-08-17T03:20:07.071Z,5.60
2022-08-17T03:23:01.878Z,5.97
2022-08-17T03:25:50.568Z,5.73
2022-08-17T03:28:40.697Z,5.73
2022-08-17T03:31:28.045Z,5.23
2022-08-17T03:34:14.913Z,5.40
2022-08-17T03:37:01.927Z,5.17
2022-08-17T03:39:50.193Z,5.43
2022-08-17T03:42:39.064Z,6.40
2022-08-17T03:45:40.765Z,6.23
2022-08-17T03:48:46.478Z,6.20
2022-08-17T03:51:51.149Z,5.83
2022-08-17T03:54:56.092Z,5.73
2022-08-17T03:57:44.082Z,6.00
2022-08-17T04:00:30.898Z,4.37
2022-08-17T04:03:18.686Z,5.53
2022-08-17T04:06:06.300Z,5.83
2022-08-17T04:08:53.611Z,5.67
2022-08-17T04:11:41.293Z,5.73
2022-08-17T04:14:31.119Z,6.00
2022-08-17T04:17:18.336Z,6.30
2022-08-17T04:20:07.068Z,6.23
2022-08-17T04:22:59.319Z,6.30
2022-08-17T04:25:49.013Z,10.20
2022-08-17T04:28:35.774Z,7.93
2022-08-17T04:31:24.393Z,6.50
2022-08-17T04:34:11.815Z,6.27
2022-08-17T04:36:58.837Z,6.17
2022-08-17T04:40:05.705Z,6.73
2022-08-17T04:43:01.380Z,6.13
2022-08-17T04:45:55.545Z,6.20
2022-08-17T04:48:46.728Z,6.53
2022-08-17T04:51:36.343Z,6.90
2022-08-17T04:54:23.484Z,6.03
2022-08-17T04:57:10.869Z,6.57
2022-08-17T04:59:57.824Z,6.53
2022-08-17T05:02:49.596Z,6.77
2022-08-17T05:05:43.071Z,6.27
2022-08-17T05:08:30.092Z,6.47
2022-08-17T05:11:18.890Z,6.50
2022-08-17T05:14:06.441Z,6.13
2022-08-17T05:16:53.574Z,8.10
2022-08-17T05:19:41.135Z,7.23
2022-08-17T05:22:29.679Z,6.77
2022-08-17T05:25:16.427Z,7.27
2022-08-17T05:28:05.625Z,6.73
2022-08-17T05:30:53.409Z,6.33
2022-08-17T05:33:44.521Z,7.30
2022-08-17T05:36:42.015Z,5.67
2022-08-17T05:39:32.877Z,6.57
2022-08-17T05:42:20.085Z,7.43
2022-08-17T05:45:08.156Z,7.53
2022-08-17T05:47:55.096Z,6.90
2022-08-17T05:50:50.560Z,6.57
2022-08-17T05:53:46.469Z,5.90
2022-08-17T05:56:52.225Z,5.87
2022-08-17T05:59:57.632Z,5.90
2022-08-17T06:02:59.131Z,6.03
2022-08-17T06:06:00.012Z,6.47
2022-08-17T06:08:51.980Z,5.47
2022-08-17T06:11:47.996Z,6.67
2022-08-17T06:14:52.505Z,6.93
2022-08-17T06:17:39.749Z,6.03
2022-08-17T06:20:31.178Z,6.60
2022-08-17T06:23:31.317Z,6.37
2022-08-17T06:26:25.825Z,6.67
2022-08-17T06:29:37.237Z,6.60
2022-08-17T06:32:25.028Z,7.20
2022-08-17T06:35:14.331Z,6.70
2022-08-17T06:38:09.173Z,5.87
2022-08-17T06:41:17.327Z,6.40
2022-08-17T06:44:49.847Z,5.63
2022-08-17T06:47:29.723Z,5.30
2022-08-17T06:50:21.112Z,5.90
2022-08-17T06:53:20.431Z,5.17
2022-08-17T06:56:09.916Z,5.30
2022-08-17T06:58:58.651Z,5.27
2022-08-17T07:01:49.935Z,5.37
2022-08-17T07:04:38.234Z,5.37
2022-08-17T07:07:43.643Z,5.10
2022-08-17T07:10:37.007Z,4.70
2022-08-17T07:13:32.151Z,5.33
2022-08-17T07:16:23.376Z,5.03
2022-08-17T07:19:10.901Z,4.97
2022-08-17T07:22:10.619Z,4.40
2022-08-17T07:24:59.603Z,4.70
2022-08-17T07:27:51.137Z,4.70
2022-08-17T07:30:47.277Z,5.60
2022-08-17T07:33:39.259Z,5.20
2022-08-17T07:36:33.581Z,5.23
2022-08-17T07:39:27.617Z,5.17
2022-08-17T07:42:15.019Z,5.10
2022-08-17T07:45:24.180Z,5.23
2022-08-17T07:48:21.326Z,4.37
2022-08-17T07:51:28.167Z,4.40
2022-08-17T07:54:24.496Z,4.57
2022-08-17T07:57:36.645Z,4.40
2022-08-17T08:00:31.678Z,4.00
2022-08-17T08:03:27.199Z,4.00
2022-08-17T08:06:21.732Z,4.37
2022-08-17T08:09:08.782Z,4.27
2022-08-17T08:11:57.127Z,4.20
2022-08-17T08:14:56.118Z,4.30
2022-08-17T08:17:54.203Z,4.43
2022-08-17T08:20:51.919Z,4.10
2022-08-17T08:23:47.352Z,5.13
2022-08-17T08:26:42.237Z,4.20
2022-08-17T08:29:40.496Z,4.20
2022-08-17T08:32:40.557Z,3.57
2022-08-17T08:35:33.725Z,3.80
2022-08-17T08:38:31.517Z,3.87
2022-08-17T08:41:34.005Z,3.93
2022-08-17T08:45:00.688Z,4.13
2022-08-17T08:48:05.684Z,4.03
2022-08-17T08:51:00.830Z,4.13
2022-08-17T08:53:56.436Z,4.17
2022-08-17T08:57:19.742Z,4.30
2022-08-17T09:00:12.780Z,4.30
2022-08-17T09:03:20.890Z,4.37
2022-08-17T09:06:32.623Z,4.70
2022-08-17T09:09:35.679Z,4.17
2022-08-17T09:12:29.895Z,4.50
2022-08-17T09:15:22.908Z,4.10
2022-08-17T09:19:03.215Z,3.73
2022-08-17T09:21:27.762Z,4.00
2022-08-17T09:24:26.025Z,4.27
2022-08-17T09:27:15.859Z,4.30
2022-08-17T09:30:10.157Z,4.23
2022-08-17T09:33:03.312Z,4.63
2022-08-17T09:35:56.542Z,4.67
2022-08-17T09:38:53.703Z,4.60
2022-08-17T09:41:49.159Z,4.90
2022-08-17T09:44:41.053Z,4.43
2022-08-17T09:47:34.457Z,5.40
2022-08-17T09:51:03.336Z,5.37
2022-08-17T09:53:36.610Z,5.70
2022-08-17T09:56:42.295Z,5.17
2022-08-17T09:59:41.879Z,5.30
2022-08-17T10:03:02.997Z,5.00
2022-08-17T10:05:57.192Z,4.90
2022-08-17T10:08:52.068Z,6.10
2022-08-17T10:12:07.149Z,5.87
2022-08-17T10:15:08.197Z,4.17
2022-08-17T10:18:33.194Z,4.07
2022-08-17T10:21:39.132Z,3.70
2022-08-17T10:25:01.871Z,4.53
2022-08-17T10:27:58.444Z,3.67
2022-08-17T10:30:51.558Z,3.47
2022-08-17T10:33:50.961Z,3.43
2022-08-17T10:36:48.942Z,3.43
2022-08-17T10:39:52.131Z,3.37
2022-08-17T10:42:50.170Z,3.30
2022-08-17T10:45:46.090Z,3.37
2022-08-17T10:48:37.218Z,3.20
2022-08-17T10:51:37.910Z,3.20
2022-08-17T10:54:41.443Z,3.00
2022-08-17T10:57:38.105Z,3.43
2022-08-17T11:01:02.157Z,3.47
2022-08-17T11:03:54.072Z,3.37
2022-08-17T11:06:50.659Z,3.70
2022-08-17T11:09:55.654Z,3.57
2022-08-17T11:12:51.479Z,3.10
2022-08-17T11:15:49.536Z,3.40
2022-08-17T11:19:08.543Z,3.23
2022-08-17T11:22:41.207Z,2.93
2022-08-17T11:25:39.470Z,3.37
2022-08-17T11:28:28.107Z,3.87
2022-08-17T11:31:38.269Z,4.50
2022-08-17T11:34:28.886Z,4.03
2022-08-17T11:37:36.521Z,3.33
2022-08-17T11:40:47.376Z,3.10
2022-08-17T11:44:01.878Z,3.83
2022-08-17T11:47:23.897Z,3.20
2022-08-17T11:50:51.571Z,3.53
2022-08-17T11:54:31.695Z,3.53
2022-08-17T11:58:01.597Z,3.43
2022-08-17T12:00:56.682Z,4.03
2022-08-17T12:03:53.853Z,3.53
2022-08-17T12:06:49.673Z,3.30
2022-08-17T12:09:41.821Z,3.80
2022-08-17T12:12:35.743Z,3.30
2022-08-17T12:15:32.514Z,4.00
2022-08-17T12:18:24.530Z,3.70
2022-08-17T12:21:34.289Z,3.67
2022-08-17T12:24:46.489Z,3.80
2022-08-17T12:28:04.206Z,3.90
2022-08-17T12:30:51.909Z,4.90
2022-08-17T12:33:45.163Z,5.00
2022-08-17T12:36:33.701Z,3.93
2022-08-17T12:39:24.989Z,4.07
2022-08-17T12:42:24.527Z,3.70
2022-08-17T12:45:26.131Z,3.20
2022-08-17T12:48:23.189Z,3.37
2022-08-17T12:51:11.346Z,3.50
2022-08-17T12:53:58.761Z,3.10
2022-08-17T12:56:47.594Z,2.93
2022-08-17T12:59:34.730Z,3.20
2022-08-17T13:02:32.436Z,3.20
2022-08-17T13:05:25.881Z,3.70
2022-08-17T13:08:16.940Z,3.57
2022-08-17T13:11:05.863Z,3.50
2022-08-17T13:13:55.951Z,3.13
2022-08-17T13:16:50.250Z,3.43
2022-08-17T13:19:49.238Z,6.17
2022-08-17T13:22:37.630Z,3.07
2022-08-17T13:25:25.457Z,2.50
2022-08-17T13:28:30.717Z,3.03
2022-08-17T13:31:32.960Z,2.45
2022-08-17T13:35:07.742Z,2.72
2022-08-17T13:38:01.275Z,2.35
2022-08-17T13:40:52.725Z,2.42
2022-08-17T13:43:45.583Z,2.45
2022-08-17T13:46:33.893Z,2.90
2022-08-17T13:49:22.278Z,2.88
2022-08-17T13:52:19.538Z,2.10
2022-08-17T13:55:20.592Z,2.45
2022-08-17T13:58:07.738Z,2.57
2022-08-17T14:00:56.271Z,2.93
2022-08-17T14:03:44.343Z,2.53
2022-08-17T14:06:52.525Z,2.47
2022-08-17T14:09:51.080Z,2.97
2022-08-17T14:12:41.439Z,2.57
2022-08-17T14:15:55.004Z,2.60
2022-08-17T14:18:56.074Z,2.93
2022-08-17T14:21:46.332Z,3.40
2022-08-17T14:24:35.314Z,2.70
2022-08-17T14:27:22.602Z,2.90
2022-08-17T14:30:11.939Z,2.60
2022-08-17T14:32:59.675Z,3.10
2022-08-17T14:35:47.186Z,2.77
2022-08-17T14:38:37.850Z,2.90
2022-08-17T14:41:24.719Z,2.80
2022-08-17T14:44:13.035Z,2.70
2022-08-17T14:47:01.461Z,2.90
2022-08-17T14:49:49.099Z,3.10
2022-08-17T14:52:37.319Z,2.70
2022-08-17T14:55:24.160Z,2.50
2022-08-17T14:58:11.174Z,2.83
2022-08-17T15:00:58.656Z,2.83
2022-08-17T15:03:47.398Z,2.80
2022-08-17T15:06:34.654Z,3.30
2022-08-17T15:09:21.922Z,3.20
2022-08-17T15:12:09.524Z,6.43
2022-08-17T15:14:57.039Z,3.37
2022-08-17T15:17:45.896Z,3.47
2022-08-17T15:20:35.565Z,3.00
2022-08-17T15:23:25.153Z,3.60
2022-08-17T15:26:12.691Z,2.70
2022-08-17T15:28:59.737Z,2.70
2022-08-17T15:31:46.904Z,2.73
2022-08-17T15:34:33.734Z,2.33
2022-08-17T15:37:22.306Z,2.63
2022-08-17T15:40:11.243Z,2.80
2022-08-17T15:42:59.110Z,2.80
2022-08-17T15:45:58.746Z,2.70
2022-08-17T15:48:49.091Z,2.90
2022-08-17T15:51:37.669Z,3.20
2022-08-17T15:54:26.147Z,3.23
2022-08-17T15:57:21.381Z,3.00
2022-08-17T16:00:10.157Z,2.83
2022-08-17T16:03:45.181Z,2.87
2022-08-17T16:06:08.458Z,2.57
2022-08-17T16:08:59.568Z,2.80
2022-08-17T16:11:52.794Z,3.10
2022-08-17T16:14:42.967Z,2.63
2022-08-17T16:17:39.810Z,2.83
2022-08-17T16:20:28.073Z,3.00
2022-08-17T16:23:19.918Z,2.80
2022-08-17T16:26:07.582Z,2.80
2022-08-17T16:28:56.680Z,3.37
2022-08-17T16:31:44.110Z,3.23
2022-08-17T16:34:31.088Z,2.97
2022-08-17T16:37:18.230Z,3.20
2022-08-17T16:40:07.068Z,3.03
2022-08-17T16:42:55.442Z,3.30
2022-08-17T16:45:51.801Z,3.23
2022-08-17T16:48:39.092Z,2.80
2022-08-17T16:51:26.270Z,3.00
2022-08-17T16:54:17.565Z,3.30
2022-08-17T16:57:05.524Z,3.13
2022-08-17T16:59:53.598Z,3.67
2022-08-17T17:02:43.514Z,3.10
2022-08-17T17:05:42.278Z,3.40
2022-08-17T17:08:34.710Z,3.43
2022-08-17T17:11:27.065Z,3.43
2022-08-17T17:14:18.199Z,3.93
2022-08-17T17:17:07.173Z,3.53
2022-08-17T17:20:03.914Z,3.50
2022-08-17T17:23:00.778Z,3.37
2022-08-17T17:26:00.319Z,3.57
2022-08-17T17:29:03.337Z,3.33
2022-08-17T17:31:57.510Z,3.50
2022-08-17T17:34:50.999Z,3.77
2022-08-17T17:37:41.690Z,4.07
2022-08-17T17:40:40.043Z,3.93
2022-08-17T17:43:39.016Z,4.27
2022-08-17T17:46:33.397Z,4.03
2022-08-17T17:49:20.922Z,5.43
2022-08-17T17:52:19.307Z,4.47
2022-08-17T17:55:24.689Z,4.17
2022-08-17T17:58:23.297Z,3.57
2022-08-17T18:01:23.452Z,4.10
2022-08-17T18:04:21.922Z,3.63
2022-08-17T18:07:24.658Z,3.93
2022-08-17T18:10:30.340Z,4.30
2022-08-17T18:13:28.349Z,4.33
2022-08-17T18:16:15.700Z,3.97
2022-08-17T18:19:02.837Z,4.37
2022-08-17T18:21:54.600Z,4.10
2022-08-17T18:24:44.424Z,3.73
2022-08-17T18:27:35.984Z,3.90
2022-08-17T18:30:28.937Z,5.00
2022-08-17T18:33:26.729Z,4.17
2022-08-17T18:36:26.468Z,4.43
2022-08-17T18:39:16.889Z,4.40
2022-08-17T18:42:06.136Z,4.27
2022-08-17T18:44:55.589Z,4.37
2022-08-17T18:47:55.219Z,4.30
2022-08-17T18:50:42.898Z,4.97
2022-08-17T18:53:35.762Z,4.47
2022-08-17T18:56:27.608Z,4.97
2022-08-17T18:59:27.833Z,4.50
2022-08-17T19:02:44.628Z,5.23
2022-08-17T19:05:36.626Z,5.13
2022-08-17T19:08:25.706Z,4.97
2022-08-17T19:11:20.153Z,4.13
2022-08-17T19:14:11.483Z,4.27
2022-08-17T19:17:02.806Z,4.47
2022-08-17T19:19:57.545Z,5.10
2022-08-17T19:23:06.415Z,4.53
2022-08-17T19:25:55.362Z,4.70
2022-08-17T19:28:48.673Z,4.43
2022-08-17T19:31:36.622Z,4.93
2022-08-17T19:34:33.292Z,4.30
2022-08-17T19:37:33.162Z,4.60
2022-08-17T19:40:51.570Z,4.60
2022-08-17T19:43:58.989Z,8.77
2022-08-17T19:46:56.251Z,6.17
2022-08-17T19:50:01.813Z,4.90
2022-08-17T19:52:58.077Z,4.73
2022-08-17T19:55:54.405Z,5.03
2022-08-17T19:58:53.515Z,5.13
2022-08-17T20:01:45.816Z,4.97
2022-08-17T20:04:40.620Z,4.47
2022-08-17T20:07:31.245Z,4.63
2022-08-17T20:10:29.750Z,4.90
2022-08-17T20:13:33.534Z,4.97
2022-08-17T20:16:21.350Z,5.47
2022-08-17T20:19:13.645Z,5.10
2022-08-17T20:22:07.190Z,5.63
2022-08-17T20:25:00.251Z,5.60
2022-08-17T20:27:54.630Z,5.60
2022-08-17T20:30:50.731Z,5.50
2022-08-17T20:33:39.024Z,4.80
2022-08-17T20:36:26.214Z,5.20
2022-08-17T20:39:31.879Z,5.67
2022-08-17T20:42:33.603Z,5.97
2022-08-17T20:45:53.813Z,5.37
2022-08-17T20:48:44.889Z,5.50
2022-08-17T20:51:38.523Z,5.33
2022-08-17T20:54:44.512Z,5.50
2022-08-17T20:57:48.469Z,6.10
2022-08-17T21:00:47.097Z,5.47
2022-08-17T21:03:57.348Z,6.03
2022-08-17T21:07:18.160Z,5.80
2022-08-17T21:10:14.900Z,5.20
2022-08-17T21:13:23.538Z,5.03
2022-08-17T21:16:33.672Z,5.17
2022-08-17T21:19:37.607Z,5.60
2022-08-17T21:22:48.016Z,5.03
2022-08-17T21:26:17.291Z,5.27
2022-08-17T21:29:31.753Z,5.47
2022-08-17T21:32:29.452Z,5.70
2022-08-17T21:35:30.371Z,5.57
2022-08-17T21:38:20.712Z,5.33
2022-08-17T21:41:07.984Z,4.83
2022-08-17T21:44:05.067Z,5.57
2022-08-17T21:46:54.148Z,4.70
2022-08-17T21:49:41.923Z,5.40
2022-08-17T21:52:31.037Z,5.07
2022-08-17T21:55:28.114Z,5.47
2022-08-17T21:58:29.825Z,5.43
2022-08-17T22:01:23.349Z,5.40
2022-08-17T22:04:21.454Z,4.90
2022-08-17T22:07:11.306Z,5.23
2022-08-17T22:09:59.506Z,5.43
2022-08-17T22:13:05.670Z,5.37
2022-08-17T22:16:28.489Z,4.60
2022-08-17T22:19:17.714Z,5.50
2022-08-17T22:22:05.596Z,4.87
2022-08-17T22:24:57.194Z,4.63
2022-08-17T22:27:57.060Z,4.70
2022-08-17T22:30:59.242Z,3.83
2022-08-17T22:33:48.195Z,3.93
2022-08-17T22:36:36.143Z,4.17
2022-08-17T22:39:41.622Z,3.97
2022-08-17T22:42:28.907Z,3.97
2022-08-17T22:45:17.471Z,3.53
2022-08-17T22:48:05.244Z,4.00
2022-08-17T22:51:03.031Z,3.43
2022-08-17T22:54:19.710Z,4.00
2022-08-17T22:57:24.924Z,3.70
2022-08-17T23:00:33.137Z,4.57
2022-08-17T23:03:23.346Z,3.90
2022-08-17T23:06:11.345Z,3.93
2022-08-17T23:08:58.430Z,3.60
2022-08-17T23:11:49.102Z,3.77
2022-08-17T23:14:45.731Z,4.10
2022-08-17T23:17:37.382Z,4.23
2022-08-17T23:20:24.802Z,4.00
2022-08-17T23:23:13.891Z,3.90
2022-08-17T23:26:01.099Z,3.83
2022-08-17T23:28:48.402Z,3.87
2022-08-17T23:31:35.689Z,4.30
2022-08-17T23:34:25.555Z,4.50
2022-08-17T23:37:13.124Z,4.93
2022-08-17T23:40:00.521Z,5.13
2022-08-17T23:42:47.468Z,5.10
2022-08-17T23:45:34.660Z,4.40
2022-08-17T23:48:28.567Z,4.87
2022-08-17T23:51:26.007Z,4.87
2022-08-17T23:54:16.756Z,5.40
2022-08-17T23:57:04.893Z,4.63
2022-08-17T23:59:52.300Z,5.17
